Time;durP1;ratioP1;P1;durP2;ratioP2;P2;SDS_P1;SDS_P2;PMS_P1;PMS_P2;Temp;Humidity;BMP_temperature;BMP_pressure;BME280_temperature;BME280_humidity;BME280_pressure;Samples;Min_cycle;Max_cycle;Signal;HPM_P1;HPM_P2
2022/05/02 00:01:03;;;;;;;5.43;3.50;;;;;;;7.99;100.00;101244.34;5153061;28;20036;-80
2022/05/02 00:03:33;;;;;;;5.63;3.45;;;;;;;7.96;100.00;101243.53;5138934;28;20117;-80
2022/05/02 00:06:06;;;;;;;8.60;3.95;;;;;;;8.14;100.00;101246.75;5153551;28;20033;-80
2022/05/02 00:08:36;;;;;;;7.95;4.57;;;;;;;8.27;100.00;101244.84;5156890;28;20026;-80
2022/05/02 00:11:07;;;;;;;7.63;4.60;;;;;;;8.49;100.00;101236.66;5156445;28;20447;-80
2022/05/02 00:13:37;;;;;;;12.40;4.90;;;;;;;8.76;99.85;101240.53;5157507;28;20030;-80
2022/05/02 00:16:07;;;;;;;12.73;5.07;;;;;;;8.74;98.60;101243.16;5155930;28;20053;-80
2022/05/02 00:18:38;;;;;;;7.22;4.47;;;;;;;8.84;97.89;101233.44;5135411;28;20027;-80
2022/05/02 00:21:08;;;;;;;7.80;4.55;;;;;;;9.09;97.34;101235.56;5156289;28;20026;-79
2022/05/02 00:23:38;;;;;;;10.52;4.97;;;;;;;9.02;96.32;101233.97;5151942;28;20627;-79
2022/05/02 00:26:08;;;;;;;8.52;4.65;;;;;;;8.87;97.94;101226.41;5153381;28;20086;-79
2022/05/02 00:28:39;;;;;;;8.15;4.50;;;;;;;8.65;99.40;101229.44;5136283;28;20030;-80
2022/05/02 00:31:09;;;;;;;7.93;4.47;;;;;;;8.72;100.00;101229.28;5154641;28;20110;-79
2022/05/02 00:33:39;;;;;;;7.25;4.32;;;;;;;8.92;98.34;101228.94;5135695;28;20046;-79
2022/05/02 00:36:10;;;;;;;6.28;4.38;;;;;;;8.99;98.88;101223.59;5151906;28;20030;-80
2022/05/02 00:38:40;;;;;;;5.25;3.63;;;;;;;8.66;100.00;101216.38;5156862;28;20034;-80
2022/05/02 00:41:11;;;;;;;6.47;4.25;;;;;;;8.61;100.00;101215.63;5158070;28;20030;-80
2022/05/02 00:43:41;;;;;;;7.25;4.28;;;;;;;8.66;100.00;101224.22;5159827;28;20034;-80
2022/05/02 00:46:20;;;;;;;6.35;4.28;;;;;;;8.74;100.00;101211.03;5154892;28;20036;-79
2022/05/02 00:48:50;;;;;;;8.60;4.43;;;;;;;8.85;100.00;101214.28;5154317;28;20038;-80
2022/05/02 00:51:21;;;;;;;9.95;4.63;;;;;;;8.71;100.00;101216.31;5150846;28;20036;-79
2022/05/02 00:53:52;;;;;;;6.80;4.05;;;;;;;8.80;100.00;101214.41;5153125;28;20024;-79
2022/05/02 00:56:23;;;;;;;6.90;4.78;;;;;;;8.89;100.00;101222.03;5154706;28;20026;-79
2022/05/02 00:58:54;;;;;;;8.00;4.47;;;;;;;9.03;99.01;101220.03;5155465;28;20027;-80
2022/05/02 01:01:24;;;;;;;6.28;4.55;;;;;;;9.18;99.30;101215.38;5155509;28;20030;-80
2022/05/02 01:03:55;;;;;;;8.90;5.38;;;;;;;9.19;98.27;101209.28;5152532;28;20031;-80
2022/05/02 01:09:14;;;;;;;6.85;5.20;;;;;;;9.24;97.60;101212.66;5158176;28;20038;-79
2022/05/02 01:11:44;;;;;;;6.60;5.18;;;;;;;9.39;97.71;101214.09;5138511;28;20034;-79
2022/05/02 01:14:15;;;;;;;8.07;4.45;;;;;;;9.42;97.44;101214.03;5155745;28;20026;-80
2022/05/02 01:16:45;;;;;;;8.05;4.68;;;;;;;9.35;98.78;101208.06;5153880;28;20114;-80
2022/05/02 01:19:15;;;;;;;8.48;4.53;;;;;;;9.34;98.04;101216.78;5155883;28;20022;-80
2022/05/02 01:21:45;;;;;;;7.85;4.32;;;;;;;9.29;98.72;101215.19;5137305;28;20030;-80
2022/05/02 01:24:16;;;;;;;7.07;4.30;;;;;;;9.35;97.91;101207.22;5154235;28;20429;-80
2022/05/02 01:26:46;;;;;;;7.82;4.57;;;;;;;9.25;99.12;101210.91;5153272;28;20049;-80
2022/05/02 01:29:16;;;;;;;7.25;4.45;;;;;;;9.46;98.46;101211.31;5154351;28;20049;-80
2022/05/02 01:31:47;;;;;;;7.45;4.68;;;;;;;9.32;97.60;101204.69;5152930;28;20076;-80
2022/05/02 01:34:17;;;;;;;7.30;4.40;;;;;;;9.31;98.49;101213.41;5154573;28;20023;-79
2022/05/02 01:36:47;;;;;;;8.63;4.80;;;;;;;9.06;100.00;101199.13;5135444;28;20042;-79
2022/05/02 01:39:18;;;;;;;8.57;4.60;;;;;;;9.12;100.00;101201.63;5157096;28;20102;-80
2022/05/02 01:41:49;;;;;;;8.43;5.38;;;;;;;8.89;100.00;101206.41;5152208;28;20041;-80
2022/05/02 01:44:19;;;;;;;6.65;4.82;;;;;;;9.10;100.00;101210.34;5136458;28;20023;-77
2022/05/02 01:46:49;;;;;;;10.43;5.10;;;;;;;8.93;100.00;101208.06;5134749;28;20035;-76
2022/05/02 01:49:20;;;;;;;9.13;4.85;;;;;;;9.17;100.00;101202.38;5154693;28;20062;-77
2022/05/02 01:51:51;;;;;;;7.90;4.88;;;;;;;9.01;100.00;101206.16;5153632;28;20127;-81
2022/05/02 01:54:21;;;;;;;5.97;4.63;;;;;;;9.02;100.00;101192.25;5154034;28;20540;-80
2022/05/02 01:56:52;;;;;;;7.32;4.72;;;;;;;8.91;100.00;101198.56;5152710;28;20077;-79
2022/05/02 01:59:23;;;;;;;9.27;5.32;;;;;;;8.75;100.00;101192.75;5185386;23;20046;-76
2022/05/02 02:01:54;;;;;;;8.55;5.07;;;;;;;8.72;100.00;101195.41;5166809;28;20384;-73
2022/05/02 02:07:14;;;;;;;8.07;4.82;;;;;;;8.75;100.00;101194.53;5174945;28;20053;-77
2022/05/02 02:09:44;;;;;;;8.65;5.30;;;;;;;8.78;100.00;101197.94;5153033;28;20116;-74
2022/05/02 02:12:15;;;;;;;7.32;4.97;;;;;;;8.72;100.00;101198.03;5153464;28;20023;-75
2022/05/02 02:14:45;;;;;;;9.48;5.30;;;;;;;8.63;100.00;101198.22;5154622;28;20023;-76
2022/05/02 02:17:15;;;;;;;10.43;5.20;;;;;;;8.75;100.00;101197.97;5152737;28;20030;-75
2022/05/02 02:19:45;;;;;;;7.65;5.10;;;;;;;8.81;100.00;101202.22;5167742;28;20040;-75
2022/05/02 02:22:16;;;;;;;7.57;5.20;;;;;;;8.82;100.00;101193.50;5164382;28;20436;-75
2022/05/02 02:24:48;;;;;;;7.80;5.03;;;;;;;8.74;100.00;101188.44;5152489;28;20034;-74
2022/05/02 02:27:18;;;;;;;8.85;5.13;;;;;;;8.68;100.00;101191.16;5153420;28;20030;-76
2022/05/02 02:29:48;;;;;;;7.50;5.50;;;;;;;8.60;100.00;101190.44;5151774;28;20101;-75
2022/05/02 02:32:18;;;;;;;8.50;5.10;;;;;;;8.74;100.00;101191.03;5152818;28;20249;-74
2022/05/02 02:34:49;;;;;;;9.93;5.53;;;;;;;8.80;100.00;101185.72;5151726;28;20460;-74
2022/05/02 02:37:19;;;;;;;8.25;5.32;;;;;;;8.73;100.00;101186.72;5152288;28;20027;-74
2022/05/02 02:39:49;;;;;;;10.00;5.88;;;;;;;8.65;100.00;101180.81;5147773;28;20041;-76
2022/05/02 02:42:22;;;;;;;7.20;5.13;;;;;;;8.69;100.00;101179.84;5153010;28;20034;-76
2022/05/02 02:44:53;;;;;;;7.93;5.45;;;;;;;8.65;100.00;101179.94;5154343;28;20030;-74
2022/05/02 02:47:23;;;;;;;9.23;4.75;;;;;;;8.67;100.00;101179.03;5150572;28;20042;-73
2022/05/02 02:49:53;;;;;;;8.52;5.15;;;;;;;8.71;100.00;101172.88;5157217;28;20511;-74
2022/05/02 02:52:24;;;;;;;7.05;5.18;;;;;;;8.75;100.00;101182.34;5135652;28;20130;-74
2022/05/02 02:54:54;;;;;;;9.80;5.45;;;;;;;8.75;100.00;101179.72;5150621;28;20081;-76
2022/05/02 02:57:24;;;;;;;8.38;5.53;;;;;;;8.83;100.00;101174.38;5153504;28;20073;-76
2022/05/02 02:59:55;;;;;;;8.18;5.45;;;;;;;8.84;100.00;101165.66;5150730;28;20037;-76
2022/05/02 03:02:25;;;;;;;8.57;5.45;;;;;;;8.83;100.00;101170.03;5153304;28;20030;-76
2022/05/02 03:07:45;;;;;;;8.30;4.97;;;;;;;9.02;100.00;101160.09;5154024;28;20109;-76
2022/05/02 03:10:15;;;;;;;10.13;5.43;;;;;;;9.05;100.00;101157.44;5147739;28;20019;-75
2022/05/02 03:12:46;;;;;;;9.23;4.85;;;;;;;9.08;100.00;101154.78;5151689;28;20038;-76
2022/05/02 03:15:16;;;;;;;8.20;4.93;;;;;;;9.12;100.00;101146.88;5153905;28;20453;-74
2022/05/02 03:17:47;;;;;;;9.40;5.22;;;;;;;9.17;100.00;101145.84;5151497;28;20501;-76
2022/05/02 03:20:17;;;;;;;7.80;5.35;;;;;;;9.25;100.00;101148.31;5157231;28;20499;-77
2022/05/02 03:22:48;;;;;;;9.30;5.40;;;;;;;9.27;100.00;101143.91;5152673;28;20062;-75
2022/05/02 03:25:18;;;;;;;8.00;5.25;;;;;;;9.19;100.00;101149.31;5152517;28;20027;-75
2022/05/02 03:27:49;;;;;;;7.60;5.13;;;;;;;9.08;100.00;101147.78;5150839;28;20030;-76
2022/05/02 03:30:19;;;;;;;8.25;5.50;;;;;;;8.99;100.00;101140.19;5152528;28;20045;-76
2022/05/02 03:32:49;;;;;;;8.57;5.15;;;;;;;8.99;100.00;101145.38;5133952;28;20056;-76
2022/05/02 03:35:20;;;;;;;9.25;5.40;;;;;;;8.98;100.00;101148.88;5152565;28;20073;-76
2022/05/02 03:37:50;;;;;;;9.10;5.70;;;;;;;8.82;100.00;101152.69;5150648;28;20105;-78
2022/05/02 03:40:20;;;;;;;7.75;5.28;;;;;;;9.03;100.00;101154.03;5147312;28;20061;-76
2022/05/02 03:42:51;;;;;;;9.25;5.35;;;;;;;9.17;100.00;101163.25;5163619;28;20034;-75
2022/05/02 03:45:21;;;;;;;7.80;5.20;;;;;;;9.11;100.00;101157.31;5153609;28;20110;-76
2022/05/02 03:47:52;;;;;;;11.65;6.15;;;;;;;8.91;100.00;101151.66;5152094;28;20379;-76
2022/05/02 03:50:22;;;;;;;7.22;5.28;;;;;;;8.92;100.00;101148.16;5156416;28;20061;-76
2022/05/02 03:52:52;;;;;;;9.23;5.82;;;;;;;8.99;100.00;101155.81;5149753;28;20031;-76
2022/05/02 03:55:23;;;;;;;10.10;5.70;;;;;;;8.98;100.00;101156.72;5145290;28;21087;-76
2022/05/02 03:57:53;;;;;;;9.23;5.50;;;;;;;8.94;100.00;101155.06;5128712;28;20037;-76
2022/05/02 04:00:23;;;;;;;9.20;5.47;;;;;;;9.10;100.00;101156.44;5147787;28;20046;-74
2022/05/02 04:02:53;;;;;;;10.75;5.65;;;;;;;9.01;100.00;101150.56;5152721;28;20034;-76
2022/05/02 04:05:24;;;;;;;7.93;5.32;;;;;;;9.01;100.00;101151.44;5152146;28;20109;-76
2022/05/02 04:07:54;;;;;;;10.18;5.60;;;;;;;8.82;100.00;101139.66;5147935;28;20061;-76
2022/05/02 04:10:25;;;;;;;9.05;5.55;;;;;;;8.89;100.00;101148.22;5147023;28;20072;-75
2022/05/02 04:12:55;;;;;;;7.93;5.50;;;;;;;8.81;100.00;101150.97;5149398;28;20022;-75
2022/05/02 04:15:25;;;;;;;9.85;5.93;;;;;;;8.69;100.00;101153.78;5152537;28;20015;-75
2022/05/02 04:17:58;;;;;;;8.50;5.70;;;;;;;8.83;100.00;101161.34;5146971;28;20053;-74
2022/05/02 04:20:28;;;;;;;9.48;5.50;;;;;;;8.87;100.00;101156.03;5146641;28;20500;-74
2022/05/02 04:22:58;;;;;;;8.27;5.28;;;;;;;9.25;100.00;101158.72;5152700;28;20077;-76
2022/05/02 04:25:29;;;;;;;8.80;5.85;;;;;;;9.47;100.00;101160.03;5148818;28;20023;-76
2022/05/02 04:27:59;;;;;;;10.05;5.38;;;;;;;9.56;100.00;101159.81;5152663;28;20030;-76
2022/05/02 04:30:29;;;;;;;7.97;5.15;;;;;;;9.64;100.00;101163.97;5147927;28;20031;-75
2022/05/02 04:33:01;;;;;;;9.15;5.38;;;;;;;9.33;100.00;101164.66;5151966;28;20445;-75
2022/05/02 04:35:31;;;;;;;9.20;5.82;;;;;;;9.58;100.00;101161.50;5131429;28;20023;-74
2022/05/02 04:38:02;;;;;;;8.77;5.28;;;;;;;9.71;100.00;101164.69;5151162;28;20042;-75
2022/05/02 04:40:32;;;;;;;9.68;5.47;;;;;;;9.71;100.00;101165.56;5145653;28;20552;-75
2022/05/02 04:43:03;;;;;;;14.55;5.43;;;;;;;9.89;100.00;101165.13;5152866;28;20057;-73
2022/05/02 04:45:33;;;;;;;8.05;5.60;;;;;;;9.96;99.51;101158.84;5160635;28;20039;-74
2022/05/02 04:48:03;;;;;;;7.25;5.47;;;;;;;10.03;100.00;101157.00;5151330;28;20026;-75
2022/05/02 04:50:34;;;;;;;9.27;5.07;;;;;;;10.19;99.23;101159.19;5154708;28;20026;-75
2022/05/02 04:53:04;;;;;;;9.27;5.57;;;;;;;10.68;97.28;101159.66;5147371;28;20370;-76
2022/05/02 04:55:34;;;;;;;11.27;4.95;;;;;;;11.30;95.30;101154.38;5150185;28;20019;-74
2022/05/02 04:58:05;;;;;;;7.63;4.57;;;;;;;12.57;94.25;101154.66;5146604;28;20062;-73
2022/05/02 05:00:35;;;;;;;6.63;4.10;;;;;;;12.94;87.50;101139.38;5131633;28;20281;-75
2022/05/02 05:03:06;;;;;;;8.57;3.90;;;;;;;13.09;83.14;101142.28;5148153;28;20054;-76
2022/05/02 05:05:36;;;;;;;5.50;3.88;;;;;;;13.78;80.14;101142.22;5153499;28;20065;-76
2022/05/02 05:08:07;;;;;;;6.13;3.85;;;;;;;13.95;79.14;101136.31;5150372;28;20019;-76
2022/05/02 05:11:11;;;;;;;5.78;3.67;;;;;;;15.05;77.56;101134.13;5153254;28;20512;-75
2022/05/02 05:17:30;;;;;;;5.45;3.67;;;;;;;13.87;77.65;101146.25;5150336;28;20104;-76
2022/05/02 05:20:07;;;;;;;4.93;3.22;;;;;;;13.60;79.10;101145.56;5155347;28;20018;-75
2022/05/02 05:22:58;;;;;;;5.82;3.30;;;;;;;14.52;75.99;101124.25;5149261;28;20034;-76
2022/05/02 05:25:38;;;;;;;7.85;3.28;;;;;;;14.72;74.50;101126.88;5147639;28;20034;-74
2022/05/02 05:28:17;;;;;;;5.45;3.40;;;;;;;15.98;75.03;101123.59;5148507;28;20117;-74
2022/05/02 05:30:52;;;;;;;5.57;3.33;;;;;;;16.54;69.05;101114.59;5148923;28;20074;-76
2022/05/02 05:33:35;;;;;;;7.15;3.20;;;;;;;15.36;70.86;101123.09;5150662;28;20041;-75
2022/05/02 05:36:47;;;;;;;5.85;3.40;;;;;;;13.63;79.82;101126.22;5148506;28;20026;-76
2022/05/02 05:39:36;;;;;;;7.10;3.70;;;;;;;13.38;83.75;101128.09;5145115;28;20031;-75
2022/05/02 05:42:21;;;;;;;9.40;3.80;;;;;;;13.61;81.31;101134.13;5148122;28;20026;-74
2022/05/02 05:45:04;;;;;;;5.05;3.80;;;;;;;12.71;87.57;101125.31;5156792;28;20026;-75
2022/05/02 05:47:37;;;;;;;6.57;3.80;;;;;;;13.66;83.77;101119.06;5152762;28;20027;-75
2022/05/02 05:50:24;;;;;;;6.88;3.60;;;;;;;13.57;85.60;101111.53;5158211;28;20460;-76
2022/05/02 05:53:22;;;;;;;9.23;4.10;;;;;;;14.98;81.02;101108.16;5151740;28;20488;-75
2022/05/02 05:56:09;;;;;;;6.70;3.53;;;;;;;15.91;78.89;101101.09;5154604;28;20027;-76
2022/05/02 05:59:01;;;;;;;7.57;3.80;;;;;;;15.81;76.78;101105.09;5152686;28;20023;-75
2022/05/02 06:01:49;;;;;;;4.88;3.10;;;;;;;16.01;75.85;101111.13;5150660;28;20568;-75
2022/05/02 06:04:21;;;;;;;5.93;3.30;;;;;;;15.52;77.59;101114.41;5152718;28;20078;-75
2022/05/02 06:06:54;;;;;;;5.00;3.28;;;;;;;15.29;76.16;101117.25;5154215;28;20044;-76
2022/05/02 06:09:27;;;;;;;5.72;2.95;;;;;;;14.67;78.30;101125.38;5148484;28;20034;-75
2022/05/02 06:11:58;;;;;;;6.15;4.10;;;;;;;15.01;80.11;101119.41;5155026;28;20030;-75
2022/05/02 06:14:33;;;;;;;5.43;3.03;;;;;;;16.24;73.83;101117.91;5155779;28;20033;-76
2022/05/02 06:19:58;;;;;;;6.95;2.90;;;;;;;17.77;69.68;101113.13;5151438;28;20046;-76
2022/05/02 06:22:29;;;;;;;7.60;3.17;;;;;;;17.04;71.05;101113.66;5154099;28;20118;-76
2022/05/02 06:25:01;;;;;;;5.40;3.28;;;;;;;18.88;66.07;101107.34;5150857;28;20078;-77
2022/05/02 06:27:33;;;;;;;5.88;2.90;;;;;;;19.93;61.19;101109.44;5151372;28;20031;-75
2022/05/02 06:30:04;;;;;;;4.72;2.80;;;;;;;19.16;62.88;101118.88;5153901;28;20151;-76
2022/05/02 06:32:37;;;;;;;4.32;2.60;;;;;;;18.77;64.20;101115.97;5151613;28;20514;-75
2022/05/02 06:35:08;;;;;;;6.13;2.70;;;;;;;20.08;62.04;101113.75;5153806;28;20030;-76
2022/05/02 06:37:55;;;;;;;8.75;2.45;;;;;;;18.63;64.17;101109.81;5152527;28;20019;-75
2022/05/02 06:41:07;;;;;;;4.97;2.50;;;;;;;17.31;68.49;101120.09;5153453;28;20034;-76
2022/05/02 06:44:07;;;;;;;4.63;2.28;;;;;;;16.88;68.46;101133.03;5149187;28;20030;-73
2022/05/02 06:46:47;;;;;;;5.85;2.63;;;;;;;16.80;67.89;101132.59;5122176;28;20113;-76
2022/05/02 06:49:18;;;;;;;3.85;2.45;;;;;;;15.94;71.63;101125.53;5151318;28;20089;-76
2022/05/02 06:51:51;;;;;;;5.28;2.90;;;;;;;15.04;75.57;101124.53;5150282;28;20030;-76
2022/05/02 06:54:45;;;;;;;6.38;2.80;;;;;;;15.59;73.71;101126.38;5152563;28;20026;-75
2022/05/02 06:57:37;;;;;;;4.88;2.67;;;;;;;15.44;72.16;101127.09;5150480;28;20102;-76
2022/05/02 07:00:10;;;;;;;5.57;2.92;;;;;;;14.96;73.30;101131.06;5149040;28;20022;-75
2022/05/02 07:03:20;;;;;;;5.35;2.90;;;;;;;15.17;72.98;101133.59;5156270;28;20105;-74
2022/05/02 07:06:17;;;;;;;7.13;2.90;;;;;;;15.27;74.08;101129.63;5153975;28;20039;-75
2022/05/02 07:08:55;;;;;;;5.25;2.42;;;;;;;17.02;67.95;101122.59;5158903;28;20101;-76
2022/05/02 07:11:42;;;;;;;6.00;2.75;;;;;;;16.25;68.57;101117.81;5152687;28;20138;-76
2022/05/02 07:14:40;;;;;;;4.88;2.30;;;;;;;16.29;67.05;101129.06;5154126;28;20436;-76
2022/05/02 07:17:33;;;;;;;5.18;2.83;;;;;;;16.30;69.20;101130.78;5157608;28;20084;-77
2022/05/02 07:20:05;;;;;;;7.15;2.75;;;;;;;17.81;69.04;101119.97;5115671;28;20042;-76
2022/05/02 07:22:39;;;;;;;4.97;2.50;;;;;;;16.79;69.66;101120.31;5146769;28;20477;-77
2022/05/02 07:25:13;;;;;;;5.80;2.60;;;;;;;17.41;66.68;101125.75;5149637;28;20125;-77
2022/05/02 07:28:07;;;;;;;5.28;2.60;;;;;;;17.27;66.29;101133.53;5151028;28;20500;-76
2022/05/02 07:30:39;;;;;;;6.45;3.05;;;;;;;16.29;68.56;101142.25;5151410;28;20025;-75
2022/05/02 07:33:11;;;;;;;4.57;2.95;;;;;;;16.44;72.04;101139.75;5149758;28;20022;-77
2022/05/02 07:35:42;;;;;;;5.97;2.80;;;;;;;16.27;71.63;101130.94;5154123;28;20037;-77
2022/05/02 07:38:14;;;;;;;7.00;2.90;;;;;;;15.47;73.85;101137.47;5152954;28;20046;-77
2022/05/02 07:41:22;;;;;;;4.57;2.22;;;;;;;15.84;73.26;101139.25;5151695;28;20476;-76
2022/05/02 07:43:37;;;;;;;5.90;3.20;;;;;;;15.83;73.76;101138.38;5153642;28;20048;-77
2022/05/02 07:46:10;;;;;;;7.05;3.00;;;;;;;16.52;71.24;101140.19;5148158;28;20426;-76
2022/05/02 07:48:43;;;;;;;5.00;3.20;;;;;;;16.72;70.38;101133.91;5152180;28;20032;-77
2022/05/02 07:51:15;;;;;;;6.38;2.90;;;;;;;16.86;70.48;101134.91;5154361;28;20126;-76
2022/05/02 07:53:46;;;;;;;6.32;3.03;;;;;;;16.79;69.91;101134.34;5150801;28;20076;-76
2022/05/02 07:56:17;;;;;;;7.10;3.03;;;;;;;16.73;70.06;101130.34;5132665;28;20022;-76
2022/05/02 07:58:47;;;;;;;7.88;3.42;;;;;;;16.87;70.20;101126.91;5148639;28;20095;-77
2022/05/02 08:01:19;;;;;;;8.57;3.95;;;;;;;15.74;71.44;101133.53;5146103;28;20033;-76
2022/05/02 08:03:50;;;;;;;7.38;3.58;;;;;;;16.41;71.13;101131.13;5152131;28;20089;-77
2022/05/02 08:06:28;;;;;;;6.18;3.10;;;;;;;17.01;69.65;101123.53;5132248;28;20077;-77
2022/05/02 08:09:13;;;;;;;5.47;3.35;;;;;;;15.90;72.89;101137.13;5135270;28;20129;-77
2022/05/02 08:11:59;;;;;;;6.00;3.40;;;;;;;15.96;73.83;101131.59;5133355;28;20034;-77
2022/05/02 08:14:46;;;;;;;5.53;3.30;;;;;;;16.50;71.22;101136.78;5152600;28;20066;-77
2022/05/02 08:17:24;;;;;;;8.57;3.65;;;;;;;16.67;71.77;101136.78;5151289;28;20046;-77
2022/05/02 08:20:18;;;;;;;4.43;3.45;;;;;;;17.01;70.52;101136.72;5151892;28;20037;-77
2022/05/02 08:29:01;;;;;;;6.60;3.28;;;;;;;16.11;71.99;101137.88;5150865;28;20114;-77
2022/05/02 08:31:56;;;;;;;5.43;3.00;;;;;;;15.96;71.93;101130.72;5149127;28;20022;-77
2022/05/02 08:34:26;;;;;;;5.68;3.03;;;;;;;16.04;72.33;101134.69;5135044;28;20034;-77
2022/05/02 08:37:09;;;;;;;4.60;3.23;;;;;;;16.34;72.25;101127.91;5151561;28;20022;-77
2022/05/02 08:39:58;;;;;;;8.35;3.88;;;;;;;16.15;72.42;101129.75;5155226;28;20281;-77
2022/05/02 08:42:41;;;;;;;7.80;3.20;;;;;;;16.03;72.86;101134.78;5152855;28;20081;-77
2022/05/02 08:45:44;;;;;;;4.93;2.90;;;;;;;15.76;71.11;101134.34;5136612;28;20042;-77
2022/05/02 08:48:29;;;;;;;4.10;2.53;;;;;;;16.03;71.17;101132.16;5133801;28;20388;-77
2022/05/02 08:51:32;;;;;;;4.78;2.58;;;;;;;16.15;69.24;101132.41;5136751;28;20034;-77
2022/05/02 08:54:19;;;;;;;7.13;3.10;;;;;;;15.93;69.89;101129.13;5152683;28;20026;-77
2022/05/02 08:57:00;;;;;;;5.65;2.97;;;;;;;15.56;70.89;101131.75;5151309;28;20042;-77
2022/05/02 08:59:49;;;;;;;6.47;3.03;;;;;;;15.68;73.10;101127.72;5148555;28;20050;-77
2022/05/02 09:03:12;;;;;;;6.38;3.47;;;;;;;16.29;70.60;101129.06;5149544;28;20023;-77
2022/05/02 09:05:58;;;;;;;7.75;2.95;;;;;;;15.28;72.55;101126.06;5087756;29;20095;-77
2022/05/02 09:08:51;;;;;;;8.15;3.13;;;;;;;15.46;73.23;101119.97;5151437;28;20076;-77
2022/05/02 09:11:37;;;;;;;5.85;3.28;;;;;;;15.36;73.66;101115.19;5150970;28;20035;-77
2022/05/02 09:14:34;;;;;;;7.20;3.15;;;;;;;15.77;70.26;101111.47;5134564;28;20102;-77
2022/05/02 09:17:26;;;;;;;9.35;3.33;;;;;;;16.31;71.40;101112.25;5148894;28;20027;-77
2022/05/02 09:20:24;;;;;;;6.78;3.15;;;;;;;16.27;68.36;101113.31;5146501;28;20027;-77
2022/05/02 09:23:16;;;;;;;6.25;3.13;;;;;;;16.07;69.72;101108.16;5155474;28;20081;-77
2022/05/02 09:26:42;;;;;;;7.18;2.95;;;;;;;16.81;67.90;101107.88;5129659;28;20037;-77
2022/05/02 09:29:30;;;;;;;5.25;3.10;;;;;;;16.88;67.27;101110.13;5150120;28;20031;-77
2022/05/02 09:32:33;;;;;;;6.07;3.17;;;;;;;17.65;65.88;101090.03;5134552;28;20089;-77
2022/05/02 09:35:11;;;;;;;5.95;3.15;;;;;;;18.02;63.83;101085.19;5123318;28;20062;-77
2022/05/02 09:37:54;;;;;;;7.97;3.38;;;;;;;17.80;67.88;101086.53;5130556;28;20018;-77
2022/05/02 09:40:35;;;;;;;6.68;2.97;;;;;;;17.25;66.71;101094.00;5148749;28;20496;-76
2022/05/02 09:43:20;;;;;;;7.40;3.15;;;;;;;18.02;64.14;101077.25;5148850;28;20030;-77
2022/05/02 09:49:35;;;;;;;7.00;3.50;;;;;;;17.83;64.44;101071.31;5138031;28;20053;-77
2022/05/02 09:52:13;;;;;;;6.55;3.22;;;;;;;18.22;62.05;101068.16;5156384;28;20022;-77
2022/05/02 09:58:18;;;;;;;7.20;3.28;;;;;;;18.23;61.08;101059.28;5151371;28;20041;-77
2022/05/02 10:01:13;;;;;;;6.57;3.22;;;;;;;17.64;62.91;101061.91;5142799;28;20034;-77
2022/05/02 10:03:59;;;;;;;7.50;3.50;;;;;;;17.23;63.46;101068.59;5150816;28;20023;-77
2022/05/02 10:06:43;;;;;;;4.32;3.20;;;;;;;17.55;63.16;101068.56;5147320;28;20030;-77
2022/05/02 10:09:19;;;;;;;6.68;3.40;;;;;;;18.52;62.88;101058.44;5131711;28;20022;-77
2022/05/02 10:11:53;;;;;;;7.38;3.58;;;;;;;17.67;64.35;101056.44;5150208;28;20046;-77
2022/05/02 10:14:41;;;;;;;9.68;3.00;;;;;;;17.46;64.38;101055.84;5153268;28;20026;-77
2022/05/02 10:17:16;;;;;;;5.78;3.40;;;;;;;17.32;62.19;101053.09;5148798;28;20105;-77
2022/05/02 10:20:11;;;;;;;5.35;3.55;;;;;;;17.25;65.28;101057.00;5154743;28;20130;-77
2022/05/02 10:22:51;;;;;;;7.05;3.53;;;;;;;16.95;66.02;101057.84;5129451;28;20053;-76
2022/05/02 10:25:50;;;;;;;6.78;3.53;;;;;;;16.79;64.47;101052.50;5131116;28;20041;-77
2022/05/02 10:29:05;;;;;;;6.43;3.90;;;;;;;17.08;65.28;101048.28;5153029;28;20387;-77
2022/05/02 10:31:38;;;;;;;5.95;3.53;;;;;;;17.19;64.58;101040.66;5156108;28;20105;-77
2022/05/02 10:34:11;;;;;;;7.32;3.60;;;;;;;17.24;64.73;101043.88;5134250;28;20019;-77
2022/05/02 10:36:45;;;;;;;6.00;3.55;;;;;;;17.28;65.01;101035.69;5154160;28;20093;-77
2022/05/02 10:39:21;;;;;;;5.15;3.42;;;;;;;17.66;63.16;101041.53;5134870;28;20058;-77
2022/05/02 10:41:58;;;;;;;6.90;3.75;;;;;;;17.54;63.17;101042.19;5158036;28;20042;-77
2022/05/02 10:44:53;;;;;;;5.30;3.30;;;;;;;17.32;64.09;101036.41;5137607;28;20035;-77
2022/05/02 10:47:26;;;;;;;7.03;3.63;;;;;;;17.65;63.19;101027.44;5135793;28;20101;-77
2022/05/02 10:50:07;;;;;;;6.97;3.30;;;;;;;17.63;64.06;101033.78;5152330;28;20034;-77
2022/05/02 10:52:46;;;;;;;6.45;3.22;;;;;;;17.48;63.43;101032.81;5151074;28;20069;-77
2022/05/02 10:55:37;;;;;;;9.88;3.40;;;;;;;17.61;62.53;101027.69;5151752;28;20080;-77
2022/05/02 10:58:11;;;;;;;5.07;3.45;;;;;;;17.99;64.12;101018.41;5134876;28;20039;-77
2022/05/02 11:01:16;;;;;;;5.97;3.85;;;;;;;17.89;62.86;101019.88;5133430;28;20056;-77
2022/05/02 11:03:55;;;;;;;5.03;3.38;;;;;;;17.77;63.23;101016.16;5151781;28;20500;-77
2022/05/02 11:07:03;;;;;;;6.55;3.30;;;;;;;17.48;63.50;101001.09;5134697;28;20042;-77
2022/05/02 11:09:48;;;;;;;6.38;3.38;;;;;;;17.93;64.76;100997.59;5133276;28;20089;-77
2022/05/02 11:12:28;;;;;;;6.85;3.85;;;;;;;18.04;63.89;100988.06;5129196;28;20515;-76
2022/05/02 11:15:21;;;;;;;6.22;3.50;;;;;;;17.73;62.97;100995.25;5157083;28;20034;-77
2022/05/02 11:17:54;;;;;;;4.78;3.00;;;;;;;18.23;62.44;100999.28;5152286;28;20034;-77
2022/05/02 11:20:50;;;;;;;6.80;3.97;;;;;;;18.38;62.13;100989.59;5134372;28;20023;-77
2022/05/02 11:23:44;;;;;;;7.65;3.45;;;;;;;18.26;61.44;100987.66;5135189;28;20061;-77
2022/05/02 11:26:43;;;;;;;7.00;3.85;;;;;;;18.61;60.92;100986.38;5152753;28;20101;-77
2022/05/02 11:29:22;;;;;;;7.63;3.38;;;;;;;18.73;60.32;100984.69;5151128;28;20026;-77
2022/05/02 11:32:03;;;;;;;6.90;3.15;;;;;;;18.67;62.24;100983.38;5154240;28;20019;-77
2022/05/02 11:34:47;;;;;;;6.93;3.55;;;;;;;18.50;62.19;100979.09;5149929;28;20023;-77
2022/05/02 11:37:42;;;;;;;5.95;3.67;;;;;;;18.59;61.58;100977.69;5151524;28;20480;-77
2022/05/02 11:40:13;;;;;;;7.43;3.65;;;;;;;18.23;61.31;100979.91;5133092;28;20042;-77
2022/05/02 11:42:48;;;;;;;6.93;3.60;;;;;;;18.58;60.76;100975.97;5131810;28;20117;-77
2022/05/02 11:45:43;;;;;;;8.00;4.15;;;;;;;18.41;62.42;100966.44;5153508;28;21149;-77
2022/05/02 11:48:20;;;;;;;5.18;3.50;;;;;;;18.69;60.38;100958.47;5133172;28;20042;-77
2022/05/02 11:50:55;;;;;;;7.75;3.70;;;;;;;18.48;63.80;100965.09;5152102;28;20507;-77
2022/05/02 11:53:32;;;;;;;7.13;3.80;;;;;;;18.46;62.24;100951.13;5149885;28;20085;-77
2022/05/02 11:56:04;;;;;;;5.60;3.28;;;;;;;18.89;63.15;100948.31;5133617;28;20030;-77
2022/05/02 11:58:42;;;;;;;7.13;3.78;;;;;;;19.13;62.06;100957.34;5149730;28;20027;-77
2022/05/02 12:01:22;;;;;;;6.60;3.83;;;;;;;18.90;60.74;100952.69;5136272;28;20037;-76
2022/05/02 12:03:59;;;;;;;8.95;3.83;;;;;;;18.93;62.29;100949.81;5149073;28;20038;-77
2022/05/02 12:06:41;;;;;;;7.70;4.03;;;;;;;18.12;63.48;100945.28;5132237;28;20033;-77
2022/05/02 12:09:25;;;;;;;7.68;3.53;;;;;;;18.08;64.59;100949.06;5152572;28;20049;-77
2022/05/02 12:11:58;;;;;;;6.20;3.53;;;;;;;17.87;63.71;100947.72;5148821;28;20444;-77
2022/05/02 12:14:31;;;;;;;7.65;3.97;;;;;;;17.93;64.69;100942.03;5152785;28;20026;-77
2022/05/02 12:17:11;;;;;;;5.80;3.88;;;;;;;18.37;63.01;100934.97;5146580;28;20057;-77
2022/05/02 12:19:41;;;;;;;6.45;4.35;;;;;;;18.46;61.96;100934.38;5152401;28;20037;-77
2022/05/02 12:22:24;;;;;;;8.02;4.20;;;;;;;18.40;63.10;100929.47;5155043;28;20420;-77
2022/05/02 12:25:03;;;;;;;7.40;4.03;;;;;;;18.51;61.48;100927.00;5151420;28;20062;-77
2022/05/02 12:27:34;;;;;;;8.98;4.70;;;;;;;18.97;62.44;100926.66;5150806;28;20030;-77
2022/05/02 12:30:06;;;;;;;7.85;4.30;;;;;;;18.84;61.51;100923.06;5131459;28;20042;-77
2022/05/02 12:32:38;;;;;;;6.60;4.25;;;;;;;19.06;61.45;100926.91;5149406;28;20367;-77
2022/05/02 12:35:11;;;;;;;6.65;3.65;;;;;;;18.97;61.09;100916.06;5152653;28;20046;-77
2022/05/02 12:37:46;;;;;;;9.57;4.07;;;;;;;19.17;60.39;100905.91;5131620;28;20210;-77
2022/05/02 12:40:18;;;;;;;7.47;3.80;;;;;;;19.08;62.95;100908.28;5137454;28;20037;-77